sensor_id;sensor_type;location;lat;lon;timestamp;P1;durP1;ratioP1;P2;durP2;ratioP2
68379;SDS011;57711;53.196;19.638;2023-04-24T00:02:04;16.60;;;8.10;;
68379;SDS011;57711;53.196;19.638;2023-04-24T00:04:33;24.50;;;12.10;;
68379;SDS011;57711;53.196;19.638;2023-04-24T00:07:01;23.10;;;11.90;;
68379;SDS011;57711;53.196;19.638;2023-04-24T00:09:28;17.40;;;9.30;;
68379;SDS011;57711;53.196;19.638;2023-04-24T00:11:55;15.70;;;8.20;;
68379;SDS011;57711;53.196;19.638;2023-04-24T00:14:22;19.00;;;9.00;;
68379;SDS011;57711;53.196;19.638;2023-04-24T00:16:50;16.10;;;8.80;;
68379;SDS011;57711;53.196;19.638;2023-04-24T00:19:17;15.60;;;8.70;;
68379;SDS011;57711;53.196;19.638;2023-04-24T00:21:48;22.20;;;10.50;;
68379;SDS011;57711;53.196;19.638;2023-04-24T00:24:16;25.70;;;11.10;;
68379;SDS011;57711;53.196;19.638;2023-04-24T00:26:45;22.10;;;10.30;;
68379;SDS011;57711;53.196;19.638;2023-04-24T00:29:12;26.10;;;10.50;;
68379;SDS011;57711;53.196;19.638;2023-04-24T00:31:39;20.10;;;10.20;;
68379;SDS011;57711;53.196;19.638;2023-04-24T00:34:06;20.00;;;10.30;;
68379;SDS011;57711;53.196;19.638;2023-04-24T00:36:34;19.30;;;10.70;;
68379;SDS011;57711;53.196;19.638;2023-04-24T00:39:01;20.20;;;10.50;;
68379;SDS011;57711;53.196;19.638;2023-04-24T00:41:29;19.60;;;10.70;;
68379;SDS011;57711;53.196;19.638;2023-04-24T00:43:56;40.30;;;15.00;;
68379;SDS011;57711;53.196;19.638;2023-04-24T00:46:23;25.10;;;13.10;;
68379;SDS011;57711;53.196;19.638;2023-04-24T00:48:51;23.50;;;10.30;;
68379;SDS011;57711;53.196;19.638;2023-04-24T00:51:18;16.10;;;9.90;;
68379;SDS011;57711;53.196;19.638;2023-04-24T00:53:45;19.50;;;9.80;;
68379;SDS011;57711;53.196;19.638;2023-04-24T00:56:13;19.00;;;8.80;;
68379;SDS011;57711;53.196;19.638;2023-04-24T00:58:40;16.50;;;8.70;;
68379;SDS011;57711;53.196;19.638;2023-04-24T01:01:09;16.80;;;9.00;;
68379;SDS011;57711;53.196;19.638;2023-04-24T01:03:38;18.30;;;9.80;;
68379;SDS011;57711;53.196;19.638;2023-04-24T01:06:06;19.20;;;9.30;;
68379;SDS011;57711;53.196;19.638;2023-04-24T01:08:36;19.20;;;10.20;;
68379;SDS011;57711;53.196;19.638;2023-04-24T01:11:05;14.70;;;10.40;;
68379;SDS011;57711;53.196;19.638;2023-04-24T01:13:32;16.20;;;9.50;;
68379;SDS011;57711;53.196;19.638;2023-04-24T01:16:00;16.00;;;9.60;;
68379;SDS011;57711;53.196;19.638;2023-04-24T01:18:28;15.00;;;9.60;;
68379;SDS011;57711;53.196;19.638;2023-04-24T01:20:57;16.10;;;10.30;;
68379;SDS011;57711;53.196;19.638;2023-04-24T01:23:25;22.00;;;10.30;;
68379;SDS011;57711;53.196;19.638;2023-04-24T01:25:53;17.60;;;9.70;;
68379;SDS011;57711;53.196;19.638;2023-04-24T01:28:21;16.60;;;9.10;;
68379;SDS011;57711;53.196;19.638;2023-04-24T01:30:49;15.30;;;9.30;;
68379;SDS011;57711;53.196;19.638;2023-04-24T01:33:16;13.50;;;9.20;;
68379;SDS011;57711;53.196;19.638;2023-04-24T01:35:44;14.10;;;9.00;;
68379;SDS011;57711;53.196;19.638;2023-04-24T01:38:12;23.20;;;9.40;;
68379;SDS011;57711;53.196;19.638;2023-04-24T01:40:39;14.60;;;9.70;;
68379;SDS011;57711;53.196;19.638;2023-04-24T01:43:06;13.40;;;8.40;;
68379;SDS011;57711;53.196;19.638;2023-04-24T01:45:34;13.10;;;8.90;;
68379;SDS011;57711;53.196;19.638;2023-04-24T01:48:03;14.00;;;9.50;;
68379;SDS011;57711;53.196;19.638;2023-04-24T01:50:30;19.80;;;10.10;;
68379;SDS011;57711;53.196;19.638;2023-04-24T01:52:58;19.60;;;11.00;;
68379;SDS011;57711;53.196;19.638;2023-04-24T01:55:25;19.40;;;11.20;;
68379;SDS011;57711;53.196;19.638;2023-04-24T01:57:52;17.60;;;11.90;;
68379;SDS011;57711;53.196;19.638;2023-04-24T02:00:22;16.50;;;10.10;;
68379;SDS011;57711;53.196;19.638;2023-04-24T02:02:52;23.50;;;10.60;;
68379;SDS011;57711;53.196;19.638;2023-04-24T02:05:20;20.10;;;10.90;;
68379;SDS011;57711;53.196;19.638;2023-04-24T02:07:47;49.40;;;17.50;;
68379;SDS011;57711;53.196;19.638;2023-04-24T02:10:14;42.60;;;17.00;;
68379;SDS011;57711;53.196;19.638;2023-04-24T02:12:41;27.60;;;11.70;;
68379;SDS011;57711;53.196;19.638;2023-04-24T02:15:09;30.00;;;11.60;;
68379;SDS011;57711;53.196;19.638;2023-04-24T02:17:36;31.10;;;12.40;;
68379;SDS011;57711;53.196;19.638;2023-04-24T02:20:05;33.90;;;14.40;;
68379;SDS011;57711;53.196;19.638;2023-04-24T02:22:37;50.90;;;19.30;;
68379;SDS011;57711;53.196;19.638;2023-04-24T02:25:05;38.40;;;17.40;;
68379;SDS011;57711;53.196;19.638;2023-04-24T02:27:32;36.20;;;15.90;;
68379;SDS011;57711;53.196;19.638;2023-04-24T02:29:59;42.90;;;15.70;;
68379;SDS011;57711;53.196;19.638;2023-04-24T02:32:27;26.30;;;12.40;;
68379;SDS011;57711;53.196;19.638;2023-04-24T02:34:54;18.20;;;10.90;;
68379;SDS011;57711;53.196;19.638;2023-04-24T02:37:22;25.20;;;12.60;;
68379;SDS011;57711;53.196;19.638;2023-04-24T02:39:49;28.00;;;13.40;;
68379;SDS011;57711;53.196;19.638;2023-04-24T02:42:16;26.20;;;13.50;;
68379;SDS011;57711;53.196;19.638;2023-04-24T02:44:43;25.30;;;12.90;;
68379;SDS011;57711;53.196;19.638;2023-04-24T02:47:10;22.40;;;13.90;;
68379;SDS011;57711;53.196;19.638;2023-04-24T02:49:37;18.60;;;11.90;;
68379;SDS011;57711;53.196;19.638;2023-04-24T02:52:05;19.60;;;11.60;;
68379;SDS011;57711;53.196;19.638;2023-04-24T02:54:32;27.00;;;12.50;;
68379;SDS011;57711;53.196;19.638;2023-04-24T02:56:59;19.90;;;12.00;;
68379;SDS011;57711;53.196;19.638;2023-04-24T02:59:28;23.50;;;13.40;;
68379;SDS011;57711;53.196;19.638;2023-04-24T03:01:56;21.80;;;12.90;;
68379;SDS011;57711;53.196;19.638;2023-04-24T03:04:23;20.10;;;11.50;;
68379;SDS011;57711;53.196;19.638;2023-04-24T03:06:50;56.00;;;26.70;;
68379;SDS011;57711;53.196;19.638;2023-04-24T03:09:19;21.20;;;13.30;;
68379;SDS011;57711;53.196;19.638;2023-04-24T03:11:47;23.40;;;12.20;;
68379;SDS011;57711;53.196;19.638;2023-04-24T03:14:16;21.40;;;12.70;;
68379;SDS011;57711;53.196;19.638;2023-04-24T03:16:43;27.80;;;13.30;;
68379;SDS011;57711;53.196;19.638;2023-04-24T03:19:10;26.10;;;13.30;;
68379;SDS011;57711;53.196;19.638;2023-04-24T03:21:45;22.00;;;13.00;;
68379;SDS011;57711;53.196;19.638;2023-04-24T03:24:12;23.50;;;12.70;;
68379;SDS011;57711;53.196;19.638;2023-04-24T03:26:40;25.40;;;12.00;;
68379;SDS011;57711;53.196;19.638;2023-04-24T03:29:16;20.90;;;11.60;;
68379;SDS011;57711;53.196;19.638;2023-04-24T03:31:44;20.00;;;12.10;;
68379;SDS011;57711;53.196;19.638;2023-04-24T03:34:11;24.10;;;13.80;;
68379;SDS011;57711;53.196;19.638;2023-04-24T03:36:39;37.30;;;16.90;;
68379;SDS011;57711;53.196;19.638;2023-04-24T03:39:07;31.70;;;16.00;;
68379;SDS011;57711;53.196;19.638;2023-04-24T03:41:36;22.70;;;11.90;;
68379;SDS011;57711;53.196;19.638;2023-04-24T03:44:10;28.40;;;12.40;;
68379;SDS011;57711;53.196;19.638;2023-04-24T03:46:37;24.70;;;12.90;;
68379;SDS011;57711;53.196;19.638;2023-04-24T03:49:05;27.10;;;15.50;;
68379;SDS011;57711;53.196;19.638;2023-04-24T03:51:35;26.20;;;14.90;;
68379;SDS011;57711;53.196;19.638;2023-04-24T03:54:14;30.60;;;14.00;;
68379;SDS011;57711;53.196;19.638;2023-04-24T03:56:41;39.20;;;16.50;;
68379;SDS011;57711;53.196;19.638;2023-04-24T03:59:09;42.50;;;18.40;;
68379;SDS011;57711;53.196;19.638;2023-04-24T04:01:36;103.40;;;48.70;;
68379;SDS011;57711;53.196;19.638;2023-04-24T04:04:12;126.20;;;52.80;;
68379;SDS011;57711;53.196;19.638;2023-04-24T04:06:40;113.60;;;48.10;;
68379;SDS011;57711;53.196;19.638;2023-04-24T04:09:07;53.60;;;21.90;;
68379;SDS011;57711;53.196;19.638;2023-04-24T04:11:35;29.10;;;14.50;;
68379;SDS011;57711;53.196;19.638;2023-04-24T04:14:02;25.30;;;14.70;;
68379;SDS011;57711;53.196;19.638;2023-04-24T04:16:30;18.90;;;12.80;;
68379;SDS011;57711;53.196;19.638;2023-04-24T04:19:01;20.30;;;11.90;;
68379;SDS011;57711;53.196;19.638;2023-04-24T04:21:29;20.80;;;12.00;;
68379;SDS011;57711;53.196;19.638;2023-04-24T04:24:08;19.60;;;12.00;;
68379;SDS011;57711;53.196;19.638;2023-04-24T04:26:40;18.80;;;11.20;;
68379;SDS011;57711;53.196;19.638;2023-04-24T04:29:10;18.40;;;11.40;;
68379;SDS011;57711;53.196;19.638;2023-04-24T04:31:40;19.40;;;10.40;;
68379;SDS011;57711;53.196;19.638;2023-04-24T04:34:11;15.50;;;10.20;;
68379;SDS011;57711;53.196;19.638;2023-04-24T04:36:40;15.30;;;9.30;;
68379;SDS011;57711;53.196;19.638;2023-04-24T04:39:21;14.80;;;9.50;;
68379;SDS011;57711;53.196;19.638;2023-04-24T04:41:55;19.50;;;9.20;;
68379;SDS011;57711;53.196;19.638;2023-04-24T04:44:26;19.80;;;10.30;;
68379;SDS011;57711;53.196;19.638;2023-04-24T04:46:56;13.40;;;8.50;;
68379;SDS011;57711;53.196;19.638;2023-04-24T04:49:30;34.60;;;17.40;;
68379;SDS011;57711;53.196;19.638;2023-04-24T04:51:58;18.30;;;10.20;;
68379;SDS011;57711;53.196;19.638;2023-04-24T04:54:26;14.80;;;9.10;;
68379;SDS011;57711;53.196;19.638;2023-04-24T04:56:53;13.00;;;8.40;;
68379;SDS011;57711;53.196;19.638;2023-04-24T04:59:21;10.70;;;7.80;;
68379;SDS011;57711;53.196;19.638;2023-04-24T05:01:50;14.80;;;6.60;;
68379;SDS011;57711;53.196;19.638;2023-04-24T05:04:17;21.50;;;14.40;;
68379;SDS011;57711;53.196;19.638;2023-04-24T05:06:46;25.60;;;15.30;;
68379;SDS011;57711;53.196;19.638;2023-04-24T05:09:14;28.10;;;14.60;;
68379;SDS011;57711;53.196;19.638;2023-04-24T05:11:51;20.30;;;9.10;;
68379;SDS011;57711;53.196;19.638;2023-04-24T05:14:20;14.20;;;6.80;;
68379;SDS011;57711;53.196;19.638;2023-04-24T05:16:48;23.90;;;11.30;;
68379;SDS011;57711;53.196;19.638;2023-04-24T05:19:16;16.60;;;8.30;;
68379;SDS011;57711;53.196;19.638;2023-04-24T05:21:44;18.50;;;8.90;;
68379;SDS011;57711;53.196;19.638;2023-04-24T05:24:12;14.50;;;7.60;;
68379;SDS011;57711;53.196;19.638;2023-04-24T05:27:04;26.60;;;15.40;;
68379;SDS011;57711;53.196;19.638;2023-04-24T05:29:38;28.30;;;18.80;;
68379;SDS011;57711;53.196;19.638;2023-04-24T05:32:06;56.60;;;37.90;;
68379;SDS011;57711;53.196;19.638;2023-04-24T05:34:33;103.80;;;60.30;;
68379;SDS011;57711;53.196;19.638;2023-04-24T05:37:01;134.40;;;82.60;;
68379;SDS011;57711;53.196;19.638;2023-04-24T05:39:29;64.50;;;43.30;;
68379;SDS011;57711;53.196;19.638;2023-04-24T05:41:58;28.10;;;16.90;;
68379;SDS011;57711;53.196;19.638;2023-04-24T05:44:26;14.50;;;9.30;;
68379;SDS011;57711;53.196;19.638;2023-04-24T05:46:53;18.40;;;8.00;;
68379;SDS011;57711;53.196;19.638;2023-04-24T05:49:22;13.30;;;8.20;;
68379;SDS011;57711;53.196;19.638;2023-04-24T05:51:50;33.30;;;20.30;;
68379;SDS011;57711;53.196;19.638;2023-04-24T05:54:17;20.00;;;11.30;;
68379;SDS011;57711;53.196;19.638;2023-04-24T05:56:45;20.20;;;11.10;;
68379;SDS011;57711;53.196;19.638;2023-04-24T05:59:17;26.20;;;16.00;;
68379;SDS011;57711;53.196;19.638;2023-04-24T06:01:44;39.30;;;24.10;;
68379;SDS011;57711;53.196;19.638;2023-04-24T06:04:15;14.40;;;10.60;;
68379;SDS011;57711;53.196;19.638;2023-04-24T06:06:43;13.10;;;8.50;;
68379;SDS011;57711;53.196;19.638;2023-04-24T06:09:10;12.70;;;8.90;;
68379;SDS011;57711;53.196;19.638;2023-04-24T06:11:38;55.30;;;29.30;;
68379;SDS011;57711;53.196;19.638;2023-04-24T06:14:07;98.00;;;52.30;;
68379;SDS011;57711;53.196;19.638;2023-04-24T06:16:57;71.40;;;38.40;;
68379;SDS011;57711;53.196;19.638;2023-04-24T06:19:31;42.70;;;25.00;;
68379;SDS011;57711;53.196;19.638;2023-04-24T06:21:58;39.90;;;17.80;;
68379;SDS011;57711;53.196;19.638;2023-04-24T06:24:28;85.20;;;37.10;;
68379;SDS011;57711;53.196;19.638;2023-04-24T06:26:57;85.00;;;38.40;;
68379;SDS011;57711;53.196;19.638;2023-04-24T06:29:26;56.10;;;23.00;;
68379;SDS011;57711;53.196;19.638;2023-04-24T06:31:54;64.80;;;32.50;;
68379;SDS011;57711;53.196;19.638;2023-04-24T06:34:21;62.10;;;32.10;;
68379;SDS011;57711;53.196;19.638;2023-04-24T06:36:48;33.70;;;21.20;;
68379;SDS011;57711;53.196;19.638;2023-04-24T06:39:15;67.40;;;33.50;;
68379;SDS011;57711;53.196;19.638;2023-04-24T06:41:43;87.40;;;52.10;;
68379;SDS011;57711;53.196;19.638;2023-04-24T06:44:17;59.20;;;33.70;;
68379;SDS011;57711;53.196;19.638;2023-04-24T06:46:45;56.40;;;36.30;;
68379;SDS011;57711;53.196;19.638;2023-04-24T06:49:12;32.40;;;22.60;;
68379;SDS011;57711;53.196;19.638;2023-04-24T06:51:42;42.10;;;26.00;;
68379;SDS011;57711;53.196;19.638;2023-04-24T06:54:10;50.10;;;29.50;;
68379;SDS011;57711;53.196;19.638;2023-04-24T06:56:37;41.40;;;21.90;;
68379;SDS011;57711;53.196;19.638;2023-04-24T06:59:04;49.30;;;24.40;;
68379;SDS011;57711;53.196;19.638;2023-04-24T07:01:31;45.20;;;23.40;;
68379;SDS011;57711;53.196;19.638;2023-04-24T07:03:58;67.00;;;27.70;;
68379;SDS011;57711;53.196;19.638;2023-04-24T07:06:26;71.10;;;28.90;;
68379;SDS011;57711;53.196;19.638;2023-04-24T07:08:54;58.20;;;24.30;;
68379;SDS011;57711;53.196;19.638;2023-04-24T07:11:23;52.70;;;24.10;;
68379;SDS011;57711;53.196;19.638;2023-04-24T07:13:50;59.10;;;25.00;;
68379;SDS011;57711;53.196;19.638;2023-04-24T07:16:17;38.10;;;15.10;;
68379;SDS011;57711;53.196;19.638;2023-04-24T07:18:44;54.90;;;19.80;;
68379;SDS011;57711;53.196;19.638;2023-04-24T07:21:11;54.60;;;22.90;;
68379;SDS011;57711;53.196;19.638;2023-04-24T07:23:38;24.40;;;10.50;;
68379;SDS011;57711;53.196;19.638;2023-04-24T07:26:08;28.90;;;12.70;;
68379;SDS011;57711;53.196;19.638;2023-04-24T07:28:35;33.90;;;15.90;;
68379;SDS011;57711;53.196;19.638;2023-04-24T07:31:02;34.70;;;15.30;;
68379;SDS011;57711;53.196;19.638;2023-04-24T07:33:31;26.50;;;13.90;;
68379;SDS011;57711;53.196;19.638;2023-04-24T07:35:59;33.10;;;15.00;;
68379;SDS011;57711;53.196;19.638;2023-04-24T07:38:26;18.70;;;10.40;;
68379;SDS011;57711;53.196;19.638;2023-04-24T07:40:53;19.30;;;11.90;;
68379;SDS011;57711;53.196;19.638;2023-04-24T07:43:21;37.80;;;16.30;;
68379;SDS011;57711;53.196;19.638;2023-04-24T07:45:49;23.60;;;12.30;;
68379;SDS011;57711;53.196;19.638;2023-04-24T07:48:17;14.50;;;10.10;;
68379;SDS011;57711;53.196;19.638;2023-04-24T07:50:44;36.00;;;17.10;;
68379;SDS011;57711;53.196;19.638;2023-04-24T07:53:11;58.60;;;21.40;;
68379;SDS011;57711;53.196;19.638;2023-04-24T07:55:39;20.10;;;10.00;;
68379;SDS011;57711;53.196;19.638;2023-04-24T07:58:06;22.80;;;9.90;;
68379;SDS011;57711;53.196;19.638;2023-04-24T08:00:33;16.70;;;10.00;;
68379;SDS011;57711;53.196;19.638;2023-04-24T08:03:00;24.70;;;11.10;;
68379;SDS011;57711;53.196;19.638;2023-04-24T08:05:28;16.10;;;8.90;;
68379;SDS011;57711;53.196;19.638;2023-04-24T08:07:55;13.70;;;9.60;;
68379;SDS011;57711;53.196;19.638;2023-04-24T08:10:23;16.40;;;10.70;;
68379;SDS011;57711;53.196;19.638;2023-04-24T08:12:50;22.70;;;12.40;;
68379;SDS011;57711;53.196;19.638;2023-04-24T08:15:18;19.40;;;10.80;;
68379;SDS011;57711;53.196;19.638;2023-04-24T08:17:45;18.50;;;10.80;;
68379;SDS011;57711;53.196;19.638;2023-04-24T08:20:12;17.60;;;8.30;;
68379;SDS011;57711;53.196;19.638;2023-04-24T08:22:42;18.60;;;7.50;;
68379;SDS011;57711;53.196;19.638;2023-04-24T08:25:10;22.10;;;13.40;;
68379;SDS011;57711;53.196;19.638;2023-04-24T08:27:37;36.50;;;18.60;;
68379;SDS011;57711;53.196;19.638;2023-04-24T08:30:06;13.60;;;8.70;;
68379;SDS011;57711;53.196;19.638;2023-04-24T08:32:34;10.20;;;6.90;;
68379;SDS011;57711;53.196;19.638;2023-04-24T08:35:01;15.50;;;8.40;;
68379;SDS011;57711;53.196;19.638;2023-04-24T08:37:28;10.10;;;7.70;;
68379;SDS011;57711;53.196;19.638;2023-04-24T08:39:55;15.50;;;7.80;;
68379;SDS011;57711;53.196;19.638;2023-04-24T08:42:23;12.30;;;6.90;;
68379;SDS011;57711;53.196;19.638;2023-04-24T08:44:51;12.60;;;6.50;;
68379;SDS011;57711;53.196;19.638;2023-04-24T08:47:18;11.90;;;6.90;;
68379;SDS011;57711;53.196;19.638;2023-04-24T08:49:47;11.90;;;6.60;;
68379;SDS011;57711;53.196;19.638;2023-04-24T08:52:16;10.70;;;6.40;;
68379;SDS011;57711;53.196;19.638;2023-04-24T08:54:45;11.60;;;6.60;;
68379;SDS011;57711;53.196;19.638;2023-04-24T08:57:14;10.10;;;6.60;;
68379;SDS011;57711;53.196;19.638;2023-04-24T08:59:41;11.10;;;6.90;;
68379;SDS011;57711;53.196;19.638;2023-04-24T09:02:10;7.50;;;5.70;;
68379;SDS011;57711;53.196;19.638;2023-04-24T09:04:39;36.30;;;19.00;;
68379;SDS011;57711;53.196;19.638;2023-04-24T09:07:08;14.10;;;8.30;;
68379;SDS011;57711;53.196;19.638;2023-04-24T09:09:38;12.10;;;6.10;;
68379;SDS011;57711;53.196;19.638;2023-04-24T09:12:08;7.50;;;5.00;;
68379;SDS011;57711;53.196;19.638;2023-04-24T09:14:36;7.40;;;4.50;;
68379;SDS011;57711;53.196;19.638;2023-04-24T09:17:09;12.60;;;5.80;;
68379;SDS011;57711;53.196;19.638;2023-04-24T09:19:36;7.60;;;5.70;;
68379;SDS011;57711;53.196;19.638;2023-04-24T09:22:07;8.90;;;5.70;;
68379;SDS011;57711;53.196;19.638;2023-04-24T09:24:34;10.80;;;6.90;;
68379;SDS011;57711;53.196;19.638;2023-04-24T09:27:02;9.10;;;6.00;;
68379;SDS011;57711;53.196;19.638;2023-04-24T09:29:29;10.00;;;6.10;;
68379;SDS011;57711;53.196;19.638;2023-04-24T09:31:56;9.60;;;5.60;;
68379;SDS011;57711;53.196;19.638;2023-04-24T09:34:24;7.10;;;5.20;;
68379;SDS011;57711;53.196;19.638;2023-04-24T09:36:53;7.30;;;4.30;;
68379;SDS011;57711;53.196;19.638;2023-04-24T09:39:21;10.00;;;5.10;;
68379;SDS011;57711;53.196;19.638;2023-04-24T09:41:49;5.10;;;3.80;;
68379;SDS011;57711;53.196;19.638;2023-04-24T09:44:18;6.30;;;4.00;;
68379;SDS011;57711;53.196;19.638;2023-04-24T09:46:51;6.70;;;3.90;;
68379;SDS011;57711;53.196;19.638;2023-04-24T09:49:24;7.00;;;3.60;;
68379;SDS011;57711;53.196;19.638;2023-04-24T09:52:02;12.70;;;4.30;;
68379;SDS011;57711;53.196;19.638;2023-04-24T09:54:31;7.80;;;4.20;;
68379;SDS011;57711;53.196;19.638;2023-04-24T09:56:58;10.10;;;5.70;;
68379;SDS011;57711;53.196;19.638;2023-04-24T09:59:27;11.80;;;5.30;;
68379;SDS011;57711;53.196;19.638;2023-04-24T10:01:54;7.00;;;3.50;;
68379;SDS011;57711;53.196;19.638;2023-04-24T10:04:22;7.00;;;4.00;;
68379;SDS011;57711;53.196;19.638;2023-04-24T10:06:52;5.70;;;3.80;;
68379;SDS011;57711;53.196;19.638;2023-04-24T10:09:25;4.80;;;3.50;;
68379;SDS011;57711;53.196;19.638;2023-04-24T10:11:53;6.50;;;4.20;;
68379;SDS011;57711;53.196;19.638;2023-04-24T10:14:22;10.00;;;5.50;;
68379;SDS011;57711;53.196;19.638;2023-04-24T10:16:53;5.80;;;3.70;;
68379;SDS011;57711;53.196;19.638;2023-04-24T10:19:21;6.70;;;3.70;;
68379;SDS011;57711;53.196;19.638;2023-04-24T10:21:52;6.50;;;4.30;;
68379;SDS011;57711;53.196;19.638;2023-04-24T10:24:21;4.90;;;3.40;;
68379;SDS011;57711;53.196;19.638;2023-04-24T10:26:48;4.30;;;3.20;;
68379;SDS011;57711;53.196;19.638;2023-04-24T10:29:17;5.00;;;3.40;;
68379;SDS011;57711;53.196;19.638;2023-04-24T10:31:45;5.70;;;3.70;;
68379;SDS011;57711;53.196;19.638;2023-04-24T10:34:14;4.10;;;3.10;;
68379;SDS011;57711;53.196;19.638;2023-04-24T10:36:45;6.10;;;3.20;;
68379;SDS011;57711;53.196;19.638;2023-04-24T10:39:17;7.60;;;3.50;;
68379;SDS011;57711;53.196;19.638;2023-04-24T10:41:53;8.30;;;3.50;;
68379;SDS011;57711;53.196;19.638;2023-04-24T10:44:23;6.00;;;3.40;;
68379;SDS011;57711;53.196;19.638;2023-04-24T10:46:54;6.60;;;3.90;;
68379;SDS011;57711;53.196;19.638;2023-04-24T10:49:30;8.90;;;4.40;;
68379;SDS011;57711;53.196;19.638;2023-04-24T10:52:02;7.00;;;3.80;;
68379;SDS011;57711;53.196;19.638;2023-04-24T10:54:36;5.40;;;3.40;;
68379;SDS011;57711;53.196;19.638;2023-04-24T10:59:48;7.80;;;4.10;;
68379;SDS011;57711;53.196;19.638;2023-04-24T11:02:17;4.20;;;3.10;;
68379;SDS011;57711;53.196;19.638;2023-04-24T11:04:45;9.50;;;4.50;;
68379;SDS011;57711;53.196;19.638;2023-04-24T11:07:13;4.30;;;3.20;;
68379;SDS011;57711;53.196;19.638;2023-04-24T11:09:40;9.40;;;3.30;;
68379;SDS011;57711;53.196;19.638;2023-04-24T11:12:10;7.00;;;2.90;;
68379;SDS011;57711;53.196;19.638;2023-04-24T11:15:01;5.30;;;3.00;;
68379;SDS011;57711;53.196;19.638;2023-04-24T11:20:01;4.00;;;3.00;;
68379;SDS011;57711;53.196;19.638;2023-04-24T11:22:52;7.20;;;3.10;;
68379;SDS011;57711;53.196;19.638;2023-04-24T11:25:24;7.30;;;3.20;;
68379;SDS011;57711;53.196;19.638;2023-04-24T11:28:02;7.10;;;3.50;;
68379;SDS011;57711;53.196;19.638;2023-04-24T11:30:31;14.20;;;5.10;;
68379;SDS011;57711;53.196;19.638;2023-04-24T11:33:03;19.20;;;6.60;;
68379;SDS011;57711;53.196;19.638;2023-04-24T11:35:35;19.30;;;6.00;;
68379;SDS011;57711;53.196;19.638;2023-04-24T11:38:07;4.20;;;3.10;;
68379;SDS011;57711;53.196;19.638;2023-04-24T11:40:51;27.80;;;7.10;;
68379;SDS011;57711;53.196;19.638;2023-04-24T11:43:19;20.60;;;6.30;;
68379;SDS011;57711;53.196;19.638;2023-04-24T11:45:49;19.20;;;4.70;;
68379;SDS011;57711;53.196;19.638;2023-04-24T11:48:20;4.90;;;3.60;;
68379;SDS011;57711;53.196;19.638;2023-04-24T11:50:50;14.50;;;4.00;;
68379;SDS011;57711;53.196;19.638;2023-04-24T11:53:20;14.30;;;5.10;;
68379;SDS011;57711;53.196;19.638;2023-04-24T11:55:48;10.70;;;4.60;;
68379;SDS011;57711;53.196;19.638;2023-04-24T11:58:15;16.50;;;6.70;;
68379;SDS011;57711;53.196;19.638;2023-04-24T12:00:53;10.00;;;4.70;;
68379;SDS011;57711;53.196;19.638;2023-04-24T12:03:22;7.80;;;3.60;;
68379;SDS011;57711;53.196;19.638;2023-04-24T12:05:50;9.50;;;3.40;;
68379;SDS011;57711;53.196;19.638;2023-04-24T12:08:27;11.90;;;6.00;;
68379;SDS011;57711;53.196;19.638;2023-04-24T12:10:56;10.40;;;4.50;;
68379;SDS011;57711;53.196;19.638;2023-04-24T12:13:25;5.30;;;3.80;;
68379;SDS011;57711;53.196;19.638;2023-04-24T12:15:52;6.40;;;4.00;;
68379;SDS011;57711;53.196;19.638;2023-04-24T12:18:23;11.10;;;4.50;;
68379;SDS011;57711;53.196;19.638;2023-04-24T12:20:50;9.70;;;5.50;;
68379;SDS011;57711;53.196;19.638;2023-04-24T12:23:34;14.70;;;4.90;;
68379;SDS011;57711;53.196;19.638;2023-04-24T12:26:05;6.90;;;4.70;;
68379;SDS011;57711;53.196;19.638;2023-04-24T12:28:35;18.20;;;7.10;;
68379;SDS011;57711;53.196;19.638;2023-04-24T12:31:04;10.10;;;4.70;;
68379;SDS011;57711;53.196;19.638;2023-04-24T12:33:33;12.00;;;4.40;;
68379;SDS011;57711;53.196;19.638;2023-04-24T12:36:02;6.00;;;4.30;;
68379;SDS011;57711;53.196;19.638;2023-04-24T12:38:29;7.00;;;3.80;;
68379;SDS011;57711;53.196;19.638;2023-04-24T12:41:03;22.80;;;6.40;;
68379;SDS011;57711;53.196;19.638;2023-04-24T12:43:33;11.70;;;5.10;;
68379;SDS011;57711;53.196;19.638;2023-04-24T12:46:01;7.20;;;4.10;;
68379;SDS011;57711;53.196;19.638;2023-04-24T12:48:28;11.70;;;4.50;;
68379;SDS011;57711;53.196;19.638;2023-04-24T12:50:59;10.70;;;5.00;;
68379;SDS011;57711;53.196;19.638;2023-04-24T12:53:29;7.70;;;4.60;;
68379;SDS011;57711;53.196;19.638;2023-04-24T12:55:58;10.80;;;4.10;;
68379;SDS011;57711;53.196;19.638;2023-04-24T12:58:25;8.20;;;4.40;;
68379;SDS011;57711;53.196;19.638;2023-04-24T13:00:52;8.60;;;4.60;;
68379;SDS011;57711;53.196;19.638;2023-04-24T13:03:19;8.70;;;4.40;;
68379;SDS011;57711;53.196;19.638;2023-04-24T13:05:47;6.00;;;3.80;;
68379;SDS011;57711;53.196;19.638;2023-04-24T13:08:14;10.50;;;3.60;;
68379;SDS011;57711;53.196;19.638;2023-04-24T13:10:41;6.70;;;4.30;;
68379;SDS011;57711;53.196;19.638;2023-04-24T13:13:08;8.10;;;4.80;;
68379;SDS011;57711;53.196;19.638;2023-04-24T13:15:36;6.30;;;4.30;;
68379;SDS011;57711;53.196;19.638;2023-04-24T13:18:03;8.60;;;4.60;;
68379;SDS011;57711;53.196;19.638;2023-04-24T13:20:30;6.70;;;4.00;;
68379;SDS011;57711;53.196;19.638;2023-04-24T13:22:57;8.70;;;4.80;;
68379;SDS011;57711;53.196;19.638;2023-04-24T13:25:24;12.10;;;4.60;;
68379;SDS011;57711;53.196;19.638;2023-04-24T13:27:51;7.60;;;5.50;;
68379;SDS011;57711;53.196;19.638;2023-04-24T13:30:19;18.00;;;9.60;;
68379;SDS011;57711;53.196;19.638;2023-04-24T13:32:46;9.00;;;4.40;;
68379;SDS011;57711;53.196;19.638;2023-04-24T13:35:13;5.70;;;4.00;;
68379;SDS011;57711;53.196;19.638;2023-04-24T13:37:40;10.70;;;4.90;;
68379;SDS011;57711;53.196;19.638;2023-04-24T13:40:07;12.60;;;4.40;;
68379;SDS011;57711;53.196;19.638;2023-04-24T13:42:35;9.40;;;5.30;;
68379;SDS011;57711;53.196;19.638;2023-04-24T13:45:02;14.10;;;6.90;;
68379;SDS011;57711;53.196;19.638;2023-04-24T13:47:50;11.40;;;6.70;;
68379;SDS011;57711;53.196;19.638;2023-04-24T13:50:18;9.80;;;5.50;;
68379;SDS011;57711;53.196;19.638;2023-04-24T13:52:45;11.50;;;6.40;;
68379;SDS011;57711;53.196;19.638;2023-04-24T13:55:12;5.70;;;4.30;;
68379;SDS011;57711;53.196;19.638;2023-04-24T13:57:39;8.20;;;4.60;;
68379;SDS011;57711;53.196;19.638;2023-04-24T14:00:07;8.30;;;5.40;;
68379;SDS011;57711;53.196;19.638;2023-04-24T14:02:37;6.20;;;4.50;;
68379;SDS011;57711;53.196;19.638;2023-04-24T14:05:05;9.90;;;4.00;;
68379;SDS011;57711;53.196;19.638;2023-04-24T14:07:33;10.50;;;4.50;;
68379;SDS011;57711;53.196;19.638;2023-04-24T14:10:00;8.40;;;4.90;;
68379;SDS011;57711;53.196;19.638;2023-04-24T14:12:27;9.10;;;4.30;;
68379;SDS011;57711;53.196;19.638;2023-04-24T14:14:54;11.50;;;5.60;;
68379;SDS011;57711;53.196;19.638;2023-04-24T14:17:22;9.10;;;5.30;;
68379;SDS011;57711;53.196;19.638;2023-04-24T14:19:49;11.60;;;4.20;;
68379;SDS011;57711;53.196;19.638;2023-04-24T14:22:19;9.10;;;4.40;;
68379;SDS011;57711;53.196;19.638;2023-04-24T14:24:46;9.20;;;4.30;;
68379;SDS011;57711;53.196;19.638;2023-04-24T14:27:14;9.30;;;4.70;;
68379;SDS011;57711;53.196;19.638;2023-04-24T14:29:41;7.10;;;4.60;;
68379;SDS011;57711;53.196;19.638;2023-04-24T14:32:08;6.80;;;4.60;;
68379;SDS011;57711;53.196;19.638;2023-04-24T14:34:35;14.30;;;5.40;;